Latest Weather Observations for Latrobe Valley

IDV60801

Issued at 4:31 pm EDT Tuesday 9 February 2016 (issued every 30 minutes, with the page automatically refreshed every 10 minutes)

About weather observations | Map of weather stations | Latest weather observations for VIC | Other Formats
Station Details ID: 085280 Name: LATROBE VALLEY AIRPORT Lat: -38.21 Lon: 146.47 Height: 55.7 m
Data from the previous 72 hours. | See also: Recent months at Latrobe Valley
Date/Time
EDT
Temp
°C
App
Temp
°C
Dew
Point
Rel
Hum
%
Delta-T
°C
Wind Press
QNH
hPa
Press
MSL
hPa
Rain
since 9 am
mm
Dir
 
Spd
km/h
Gust
km/h
Spd
kts
Gust
kts
09/04:30pm 28.2 27.0 12.9 38 9.0 NNE 11 20 6 11 1016.9 1016.7 0.0
09/04:00pm 28.3 26.4 11.8 36 9.5 NNE 13 20 7 11 1017.1 1016.9 0.0
09/03:30pm 28.0 26.8 11.5 35 9.5 ENE 9 17 5 9 1017.4 1017.2 0.0
09/03:00pm 27.6 25.4 10.8 35 9.5 ENE 13 19 7 10 1018.0 1017.8 0.0
09/02:30pm 27.5 26.0 10.7 35 9.5 NNE 9 17 5 9 1018.4 1018.2 0.0
09/02:00pm 26.8 26.0 10.9 37 9.0 S 6 11 3 6 1018.8 1018.6 0.0
09/01:30pm 26.0 25.1 11.4 40 8.3 N 7 15 4 8 1019.1 1018.9 0.0
09/01:00pm 24.7 23.2 10.6 41 7.8 NNW 9 13 5 7 1019.6 1019.4 0.0
09/12:30pm 24.2 23.9 11.5 45 7.2 SE 4 9 2 5 1020.0 1019.8 0.0
09/12:00pm 23.4 23.0 12.4 50 6.3 WNW 6 11 3 6 1020.5 1020.3 0.0
09/11:30am 22.3 21.7 12.3 53 5.7 W 7 13 4 7 1020.8 1020.6 0.0
09/11:00am 21.3 20.8 12.7 58 4.9 SW 7 11 4 6 1021.1 1020.9 0.0
09/10:30am 20.2 20.0 12.9 63 4.1 SW 6 11 3 6 1021.3 1021.1 0.0
09/10:00am 19.3 19.1 13.0 67 3.6 SW 6 13 3 7 1021.5 1021.3 0.0
09/09:30am 18.6 17.8 12.8 69 3.3 W 9 15 5 8 1021.8 1021.6 0.0
09/09:00am 17.5 15.8 12.4 72 2.8 NW 13 17 7 9 1021.9 1021.7 0.0
09/08:30am 17.0 15.4 12.9 77 2.3 WNW 13 15 7 8 1021.9 1021.7 0.0
09/08:00am 15.7 14.6 13.0 84 1.5 WNW 11 13 6 7 1021.8 1021.6 0.0
09/07:30am 14.4 13.1 12.6 89 1.0 NW 11 13 6 7 1021.6 1021.4 0.0
09/07:00am 12.8 11.2 11.7 93 0.6 NW 11 13 6 7 1021.5 1021.3 0.0
09/06:30am 12.4 10.7 11.3 93 0.6 NW 11 13 6 7 1021.4 1021.2 0.0
09/06:00am 12.3 10.2 11.2 93 0.6 WNW 13 13 7 7 1021.2 1021.0 0.0
09/05:30am 12.4 11.0 10.8 90 0.8 WNW 9 11 5 6 1021.2 1021.0 0.0
09/05:00am 13.1 11.4 11.3 89 0.9 WNW 11 13 6 7 1021.0 1020.8 0.0
09/04:30am 13.9 11.9 11.6 86 1.2 WNW 13 15 7 8 1021.2 1021.0 0.0
09/04:00am 14.8 13.1 12.3 85 1.4 W 13 17 7 9 1021.2 1021.0 0.0
09/03:30am 14.8 13.6 12.7 87 1.2 NW 11 13 6 7 1021.3 1021.1 0.0
09/03:00am 14.2 12.8 12.1 87 1.1 NW 11 13 6 7 1021.3 1021.1 0.0
09/02:30am 14.9 13.2 12.4 85 1.4 W 13 17 7 9 1021.5 1021.3 0.0
09/02:00am 14.8 13.0 12.1 84 1.5 W 13 17 7 9 1021.6 1021.4 0.0
09/01:30am 15.2 13.5 12.5 84 1.5 W 13 15 7 8 1022.0 1021.8 0.0
09/01:00am 15.4 13.7 12.5 83 1.6 W 13 17 7 9 1022.3 1022.1 0.0
09/12:30am 15.6 14.0 12.7 83 1.6 NW 13 17 7 9 1022.3 1022.1 0.0
09/12:00am 15.8 13.7 12.5 81 1.8 WNW 15 19 8 10 1022.4 1022.2 0.0
 
Date/Time
EDT
Temp
°C
App
Temp
°C
Dew
Point
Rel
Hum
%
Delta-T
°C
Wind Press
QNH
hPa
Press
MSL
hPa
Rain
since 9 am
mm
Dir
 
Spd
km/h
Gust
km/h
Spd
kts
Gust
kts
08/11:30pm 15.6 13.9 12.4 81 1.8 WNW 13 17 7 9 1022.4 1022.2 0.0
08/11:00pm 16.6 13.6 12.6 77 2.2 WSW 20 24 11 13 1022.5 1022.3 0.0
08/10:30pm 16.9 13.2 12.6 76 2.4 WSW 24 30 13 16 1022.4 1022.2 0.0
08/10:00pm 17.3 14.4 12.8 75 2.5 SW 20 28 11 15 1022.4 1022.2 0.0
08/09:30pm 17.9 13.8 12.6 71 3.0 SW 26 32 14 17 1022.1 1021.9 0.0
08/09:00pm 18.5 14.6 12.0 66 3.6 SW 24 30 13 16 1021.6 1021.4 0.0
08/08:30pm 19.1 15.7 11.4 61 4.2 SW 20 30 11 16 1021.3 1021.1 0.0
08/08:00pm 20.2 15.5 11.9 59 4.6 SW 28 35 15 19 1020.9 1020.7 0.0
08/07:30pm 21.4 17.5 12.0 55 5.3 SW 24 35 13 19 1020.8 1020.6 0.0
08/07:00pm 22.4 18.4 12.9 55 5.4 SSW 26 35 14 19 1020.3 1020.1 0.0
08/06:30pm 23.3 18.9 12.9 52 6.0 SW 28 37 15 20 1019.9 1019.7 0.0
08/06:00pm 24.0 20.2 13.5 52 6.1 SW 26 33 14 18 1019.9 1019.7 0.0
08/05:30pm 24.9 20.7 13.5 49 6.7 SW 28 39 15 21 1019.8 1019.6 0.0
08/05:00pm 25.0 20.4 13.5 48 6.7 SW 30 41 16 22 1019.8 1019.6 0.0
08/04:30pm 26.0 21.8 13.5 46 7.4 SW 28 37 15 20 1019.9 1019.7 0.0
08/04:00pm 26.4 21.7 13.2 44 7.7 SW 30 41 16 22 1019.8 1019.6 0.0
08/03:30pm 26.6 23.3 14.0 46 7.5 SW 24 30 13 16 1020.0 1019.8 0.0
08/03:00pm 26.9 23.4 14.6 46 7.4 SW 26 35 14 19 1020.1 1019.9 0.0
08/02:30pm 26.0 22.7 14.1 47 7.1 WSW 24 37 13 20 1020.2 1020.0 0.0
08/02:00pm 25.4 23.0 13.9 49 6.8 W 19 28 10 15 1020.6 1020.4 0.0
08/01:30pm 24.7 21.3 14.8 54 5.9 WNW 26 39 14 21 1020.7 1020.5 0.0
08/01:00pm 23.7 21.0 14.7 57 5.3 W 22 30 12 16 1021.0 1020.8 0.0
08/12:30pm 23.0 20.5 15.1 61 4.7 W 22 30 12 16 1021.4 1021.2 0.0
08/12:00pm 22.7 18.9 14.8 61 4.7 SW 28 37 15 20 1021.5 1021.3 0.0
08/11:30am 23.1 20.4 14.7 59 5.0 WSW 22 30 12 16 1021.5 1021.3 0.0
08/11:00am 23.2 20.2 14.7 58 5.0 WSW 24 33 13 18 1021.6 1021.4 0.0
08/10:30am 22.5 19.2 14.1 59 4.9 SW 24 32 13 17 1021.5 1021.3 0.0
08/10:00am 21.3 18.3 13.7 62 4.4 W 22 32 12 17 1021.4 1021.2 0.0
08/09:30am 20.2 16.1 13.9 67 3.6 WSW 28 33 15 18 1021.3 1021.1 0.0
08/09:00am 19.6 15.9 13.8 69 3.3 WSW 26 32 14 17 1021.1 1020.9 0.0
08/08:30am 19.2 16.9 14.7 75 2.6 WSW 20 26 11 14 1020.9 1020.7 0.0
08/08:00am 19.0 16.6 14.5 75 2.6 W 20 24 11 13 1020.6 1020.4 0.0
08/07:30am 18.8 15.7 14.5 76 2.5 WSW 24 30 13 16 1020.4 1020.2 0.0
08/07:00am 18.5 15.7 14.4 77 2.4 WSW 22 30 12 16 1020.3 1020.1 0.0
08/06:45am 18.2 15.8 14.5 79 2.1 WSW 20 24 11 13 1020.2 1020.0 0.0
08/06:30am 18.2 15.8 14.5 79 2.1 WSW 20 24 11 13 1020.1 1019.9 0.0
08/06:00am 18.1 15.9 15.0 82 1.8 WSW 20 24 11 13 1019.8 1019.6 0.0
08/05:30am 18.2 15.3 15.1 82 1.8 WSW 24 32 13 17 1019.6 1019.4 0.0
08/05:00am 18.1 16.0 15.2 83 1.7 W 20 26 11 14 1019.4 1019.2 0.0
08/04:30am 18.2 16.8 15.6 85 1.5 W 17 20 9 11 1019.4 1019.2 0.0
08/04:00am 18.3 17.0 15.9 86 1.4 W 17 24 9 13 1019.3 1019.1 0.0
08/03:30am 18.4 17.3 16.4 88 1.2 W 17 20 9 11 1019.4 1019.2 0.0
08/03:00am 18.2 16.7 16.4 89 1.1 W 19 22 10 12 1019.4 1019.2 0.0
08/02:30am 18.2 17.3 16.9 92 0.8 WSW 17 22 9 12 1019.5 1019.3 0.0
08/02:18am 18.1 17.2 16.8 92 0.8 WSW 17 22 9 12 1019.4 1019.2 0.0
08/02:00am 18.3 17.0 16.8 91 0.9 W 19 24 10 13 1019.2 1019.0 0.0
08/01:30am 18.6 18.6 16.2 86 1.4 WSW 11 15 6 8 1019.1 1018.9 0.0
08/01:00am 18.5 18.5 15.2 81 1.9 WNW 9 13 5 7 1019.0 1018.8 0.0
08/12:30am 18.4 18.8 15.3 82 1.8 W 7 9 4 5 1019.0 1018.8 0.0
08/12:00am 19.3 20.0 14.6 74 2.7 SSE 4 7 2 4 1018.8 1018.6 0.0
 
Date/Time
EDT
Temp
°C
App
Temp
°C
Dew
Point
Rel
Hum
%
Delta-T
°C
Wind Press
QNH
hPa
Press
MSL
hPa
Rain
since 9 am
mm
Dir
 
Spd
km/h
Gust
km/h
Spd
kts
Gust
kts
07/11:30pm 21.2 21.9 15.5 70 3.4 S 6 7 3 4 1018.7 1018.5 0.0
07/11:00pm 22.1 22.7 15.2 65 4.1 SSW 6 7 3 4 1018.7 1018.5 0.0
07/10:30pm 22.3 24.1 15.4 65 4.1 CALM 0 0 0 0 1018.7 1018.5 0.0
07/10:00pm 22.1 22.5 15.2 65 4.1 NNE 7 9 4 5 1018.5 1018.3 0.0
07/09:30pm 22.9 23.1 15.7 64 4.3 NE 9 13 5 7 1018.1 1017.9 0.0
07/09:00pm 24.3 23.9 16.3 61 4.9 NNE 13 17 7 9 1017.6 1017.4 0.0
07/08:30pm 25.9 26.8 16.2 55 6.0 NNW 6 7 3 4 1017.1 1016.9 0.0
07/08:00pm 27.2 27.2 16.2 51 6.8 ENE 11 17 6 9 1016.5 1016.3 0.0
07/07:30pm 28.5 29.2 16.1 47 7.7 E 7 11 4 6 1016.2 1016.0 0.0
07/07:00pm 29.2 29.1 16.0 44 8.2 E 11 17 6 9 1015.7 1015.5 0.0
07/06:30pm 29.7 29.4 15.4 42 8.8 E 11 17 6 9 1015.3 1015.1 0.0
07/06:00pm 30.0 29.8 15.7 42 8.8 ENE 11 17 6 9 1015.2 1015.0 0.0
07/05:30pm 31.1 29.8 15.9 40 9.5 SSW 17 39 9 21 1014.5 1014.3 0.0
07/05:00pm 32.2 30.1 14.8 35 10.7 SW 19 26 10 14 1014.7 1014.5 0.0
07/04:30pm 31.6 30.3 12.4 31 11.4 SW 11 19 6 10 1014.7 1014.5 0.0
07/04:00pm 33.0 31.1 13.1 30 12.0 W 15 22 8 12 1014.6 1014.4 0.0
07/03:30pm 33.4 32.3 15.4 34 11.2 WNW 15 22 8 12 1014.8 1014.6 0.0
07/03:00pm 32.9 32.4 15.8 35 10.7 WSW 13 30 7 16 1014.9 1014.7 0.0
07/02:30pm 33.0 31.3 14.6 33 11.3 SW 17 30 9 16 1015.1 1014.9 0.0
07/02:00pm 31.9 30.4 14.1 34 10.8 WSW 15 24 8 13 1015.4 1015.2 0.0
07/01:30pm 31.1 30.0 14.3 36 10.2 WSW 13 20 7 11 1015.7 1015.5 0.0
07/01:00pm 31.1 31.5 16.3 41 9.3 WNW 9 17 5 9 1016.0 1015.8 0.0
07/12:30pm 30.1 30.3 15.8 42 8.9 WSW 9 17 5 9 1016.2 1016.0 0.0
07/12:00pm 28.4 27.4 16.7 49 7.3 WNW 17 22 9 12 1016.5 1016.3 0.0
07/11:30am 27.6 27.7 16.6 51 6.8 WSW 11 19 6 10 1016.7 1016.5 0.0
07/11:00am 26.1 25.7 15.2 51 6.6 WSW 11 17 6 9 1016.9 1016.7 0.0
07/10:30am 24.3 24.9 16.8 63 4.6 WNW 9 11 5 6 1017.0 1016.8 0.0
07/10:00am 22.1 23.2 16.6 71 3.3 W 6 9 3 5 1017.0 1016.8 0.0
07/09:30am 19.8 20.4 15.9 78 2.3 WSW 7 9 4 5 1017.1 1016.9 0.0
07/09:00am 18.1 18.9 16.3 89 1.1 W 7 9 4 5 1017.2 1017.0 0.0
07/08:46am 17.0 17.7 16.0 94 0.6 W 7 11 4 6 1017.1 1016.9 0.0
07/08:35am 16.6 17.3 16.0 96 0.4 WSW 7 9 4 5 1017.1 1016.9 0.0
07/08:30am 16.5 17.1 15.9 96 0.4 WSW 7 7 4 4 1017.0 1016.8 0.0
07/08:00am 15.4 17.0 14.9 97 0.3 CALM 0 0 0 0 1016.7 1016.5 0.0
07/07:30am 14.0 15.1 13.4 96 0.3 CALM 0 0 0 0 1016.5 1016.3 0.0
07/07:05am 13.6 14.5 13.0 96 0.3 CALM 0 0 0 0 1016.3 1016.1 0.0
07/07:00am 13.3 14.1 12.5 95 0.4 CALM 0 0 0 0 1016.3 1016.1 0.0
07/06:30am 12.6 13.2 11.8 95 0.4 CALM 0 2 0 1 1016.1 1015.9 0.0
07/06:22am 13.1 13.1 12.3 95 0.4 S 4 6 2 3 1016.0 1015.8 0.0
07/06:00am 12.8 13.4 12.0 95 0.4 CALM 0 0 0 0 1015.8 1015.6 0.0
07/05:30am 12.4 12.8 11.3 93 0.6 CALM 0 0 0 0 1015.6 1015.4 0.0
07/05:00am 13.5 14.3 12.6 94 0.5 CALM 0 0 0 0 1015.4 1015.2 0.0
07/04:44am 13.7 14.6 12.8 94 0.5 CALM 0 0 0 0 1015.5 1015.3 0.0
07/04:30am 13.7 14.6 12.8 94 0.5 CALM 0 0 0 0 1015.4 1015.2 0.0
07/04:16am 13.6 14.4 12.7 94 0.5 CALM 0 0 0 0 1015.6 1015.4 0.0
07/04:00am 14.0 14.9 12.9 93 0.6 CALM 0 0 0 0 1015.6 1015.4 0.0
07/03:30am 14.7 14.7 13.7 94 0.6 ENE 6 7 3 4 1015.5 1015.3 0.0
07/03:00am 14.3 15.2 13.0 92 0.7 CALM 0 4 0 2 1015.8 1015.6 0.0
07/02:30am 15.6 16.7 14.5 93 0.6 NE 2 7 1 4 1015.7 1015.5 0.0
07/02:00am 15.7 15.9 14.6 93 0.6 NE 7 9 4 5 1016.0 1015.8 0.0
07/01:30am 15.6 15.6 14.3 92 0.7 NNE 7 9 4 5 1016.2 1016.0 0.0
07/01:00am 16.5 16.6 14.5 88 1.1 ENE 7 9 4 5 1016.5 1016.3 0.0
07/12:30am 17.0 17.3 15.0 88 1.2 ENE 7 9 4 5 1016.7 1016.5 0.0
07/12:00am 17.5 17.8 15.1 86 1.4 E 7 11 4 6 1016.8 1016.6 0.0
 
Date/Time
EDT
Temp
°C
App
Temp
°C
Dew
Point
Rel
Hum
%
Delta-T
°C
Wind Press
QNH
hPa
Press
MSL
hPa
Rain
since 9 am
mm
Dir
 
Spd
km/h
Gust
km/h
Spd
kts
Gust
kts
06/11:30pm 17.6 17.9 15.0 85 1.5 E 7 11 4 6 1017.1 1016.9 0.0
06/11:00pm 18.1 18.7 15.2 83 1.7 E 6 9 3 5 1017.4 1017.2 0.0
06/10:30pm 18.6 19.0 15.3 81 1.9 E 7 11 4 6 1017.5 1017.3 0.0
06/10:00pm 19.3 19.0 15.4 78 2.3 ENE 11 17 6 9 1017.5 1017.3 0.0
06/09:30pm 19.8 19.9 15.4 76 2.6 ENE 9 15 5 8 1017.1 1016.9 0.0
06/09:00pm 20.5 19.8 15.3 72 3.1 E 13 19 7 10 1016.9 1016.7 0.0
06/08:30pm 21.4 20.5 14.8 66 3.9 E 13 20 7 11 1016.8 1016.6 0.0
06/08:00pm 22.6 21.3 14.7 61 4.7 E 15 24 8 13 1016.3 1016.1 0.0
06/07:30pm 23.6 21.9 14.6 57 5.3 E 17 28 9 15 1015.9 1015.7 0.0
06/07:00pm 24.6 22.8 14.4 53 6.1 E 17 28 9 15 1015.6 1015.4 0.0
06/06:30pm 25.1 23.1 15.4 55 5.9 ENE 20 32 11 17 1015.4 1015.2 0.0
06/06:00pm 25.2 22.2 14.9 52 6.2 NE 24 33 13 18 1015.1 1014.9 0.0
06/05:30pm 26.1 23.4 15.5 52 6.4 NE 24 35 13 19 1015.2 1015.0 0.0
06/05:00pm 26.3 23.6 14.7 48 7.0 NE 22 32 12 17 1015.3 1015.1 0.0

Other Formats:

Comma delimited format used in spreadsheet applications
http://www.bom.gov.au/fwo/IDV60801/IDV60801.94891.axf

JavaScript Object Notation format (JSON) in row-major order
http://www.bom.gov.au/fwo/IDV60801/IDV60801.94891.json